createdAt,value
2019-04-03T00:01:37.280Z,99445.64
2019-04-03T00:04:26.925Z,99448.89
2019-04-03T00:07:17.364Z,99443.45
2019-04-03T00:10:08.896Z,99436.11
2019-04-03T00:13:00.021Z,99429.85
2019-04-03T00:15:49.984Z,99433.92
2019-04-03T00:18:39.621Z,99423.60
2019-04-03T00:21:29.157Z,99429.90
2019-04-03T00:24:19.199Z,99421.77
2019-04-03T00:27:09.255Z,99418.52
2019-04-03T00:29:59.324Z,99412.30
2019-04-03T00:32:49.335Z,99421.08
2019-04-03T00:35:38.866Z,99414.59
2019-04-03T00:38:29.020Z,99413.79
2019-04-03T00:41:18.949Z,99414.92
2019-04-03T00:44:08.928Z,99423.65
2019-04-03T00:46:58.805Z,99421.48
2019-04-03T00:49:48.827Z,99412.80
2019-04-03T00:52:38.675Z,99412.57
2019-04-03T00:55:28.238Z,99410.70
2019-04-03T00:58:39.085Z,99400.44
2019-04-03T01:01:28.956Z,99402.08
2019-04-03T01:04:21.954Z,99386.83
2019-04-03T01:07:11.773Z,99391.48
2019-04-03T01:10:02.033Z,99382.23
2019-04-03T01:12:53.752Z,99377.38
2019-04-03T01:15:43.570Z,99369.77
2019-04-03T01:18:35.298Z,99361.09
2019-04-03T01:21:25.329Z,99353.77
2019-04-03T01:24:15.489Z,99354.31
2019-04-03T01:27:05.618Z,99356.50
2019-04-03T01:29:55.945Z,99372.02
2019-04-03T01:32:46.807Z,99360.08
2019-04-03T01:35:37.239Z,99365.52
2019-04-03T01:38:28.327Z,99353.84
2019-04-03T01:41:20.218Z,99361.16
2019-04-03T01:44:09.458Z,99364.70
2019-04-03T01:46:59.362Z,99354.66
2019-04-03T01:49:49.395Z,99359.81
2019-04-03T01:52:39.174Z,99354.95
2019-04-03T01:55:30.841Z,99357.38
2019-04-03T01:58:20.374Z,99356.59
2019-04-03T02:01:10.142Z,99356.85
2019-04-03T02:04:00.020Z,99360.39
2019-04-03T02:06:49.831Z,99359.84
2019-04-03T02:09:40.085Z,99364.20
2019-04-03T02:12:30.192Z,99363.09
2019-04-03T02:15:21.696Z,99359.31
2019-04-03T02:18:11.752Z,99355.24
2019-04-03T02:21:01.960Z,99348.73
2019-04-03T02:23:51.670Z,99351.70
2019-04-03T02:26:41.655Z,99360.41
2019-04-03T02:29:31.264Z,99373.45
2019-04-03T02:32:23.137Z,99376.16
2019-04-03T02:35:12.658Z,99367.20
2019-04-03T02:38:02.645Z,99371.02
2019-04-03T02:40:52.594Z,99362.58
2019-04-03T02:43:45.437Z,99356.62
2019-04-03T02:46:34.387Z,99354.72
2019-04-03T02:49:23.807Z,99347.93
2019-04-03T02:52:13.827Z,99341.69
2019-04-03T02:55:06.725Z,99333.82
2019-04-03T02:57:55.670Z,99334.89
2019-04-03T03:00:45.749Z,99337.84
2019-04-03T03:03:35.113Z,99329.98
2019-04-03T03:06:25.216Z,99337.30
2019-04-03T03:09:15.731Z,99338.94
2019-04-03T03:12:05.644Z,99346.54
2019-04-03T03:14:55.638Z,99342.47
2019-04-03T03:17:46.196Z,99338.93
2019-04-03T03:20:39.518Z,99344.09
2019-04-03T03:23:29.529Z,99341.63
2019-04-03T03:26:20.887Z,99335.12
2019-04-03T03:29:17.665Z,99335.12
2019-04-03T03:32:12.677Z,99327.00
2019-04-03T03:35:07.615Z,99329.70
2019-04-03T03:37:48.054Z,99339.43
2019-04-03T03:40:39.368Z,99341.59
2019-04-03T03:43:30.027Z,99337.54
2019-04-03T03:46:20.269Z,99329.10
2019-04-03T03:49:10.511Z,99317.16
2019-04-03T03:52:04.515Z,99316.33
2019-04-03T03:54:55.909Z,99321.20
2019-04-03T03:57:46.256Z,99322.30
2019-04-03T04:00:37.002Z,99309.56
2019-04-03T04:03:27.091Z,99308.20
2019-04-03T04:06:17.621Z,99305.77
2019-04-03T04:09:08.509Z,99310.89
2019-04-03T04:11:59.445Z,99305.75
2019-04-03T04:14:49.824Z,99301.94
2019-04-03T04:17:40.625Z,99301.68
2019-04-03T04:20:31.229Z,99302.21
2019-04-03T04:23:24.513Z,99308.45
2019-04-03T04:26:13.170Z,99310.32
2019-04-03T04:29:03.410Z,99311.66
2019-04-03T04:31:53.634Z,99304.34
2019-04-03T04:34:43.803Z,99303.25
2019-04-03T04:37:33.231Z,99303.52
2019-04-03T04:40:24.190Z,99289.41
2019-04-03T04:43:13.678Z,99281.00
2019-04-03T04:46:03.326Z,99279.92
2019-04-03T04:48:53.118Z,99295.34
2019-04-03T04:51:42.710Z,99294.25
2019-04-03T04:54:32.769Z,99303.73
2019-04-03T04:57:22.133Z,99292.88
2019-04-03T05:00:13.658Z,99296.94
2019-04-03T05:03:03.983Z,99297.96
2019-04-03T05:05:54.082Z,99298.53
2019-04-03T05:08:44.175Z,99298.78
2019-04-03T05:11:34.340Z,99301.00
2019-04-03T05:14:24.156Z,99294.23
2019-04-03T05:17:14.395Z,99291.25
2019-04-03T05:20:05.547Z,99288.02
2019-04-03T05:22:55.746Z,99295.88
2019-04-03T05:25:45.939Z,99303.20
2019-04-03T05:28:35.794Z,99303.49
2019-04-03T05:31:25.779Z,99299.97
2019-04-03T05:34:17.731Z,99310.53
2019-04-03T05:37:07.249Z,99311.64
2019-04-03T05:39:56.858Z,99302.72
2019-04-03T05:42:46.941Z,99303.53
2019-04-03T05:45:37.012Z,99305.73
2019-04-03T05:48:26.762Z,99304.12
2019-04-03T05:51:16.666Z,99297.91
2019-04-03T05:54:07.985Z,99290.86
2019-04-03T05:56:58.334Z,99286.28
2019-04-03T05:59:58.674Z,99295.50
2019-04-03T06:02:39.467Z,99290.09
2019-04-03T06:05:29.025Z,99286.59
2019-04-03T06:08:19.950Z,99296.34
2019-04-03T06:11:10.283Z,99287.66
2019-04-03T06:14:00.094Z,99289.55
2019-04-03T06:16:50.160Z,99300.70
2019-04-03T06:19:40.283Z,99286.03
2019-04-03T06:22:30.704Z,99283.05
2019-04-03T06:25:20.938Z,99292.83
2019-04-03T06:28:12.613Z,99306.94
2019-04-03T06:31:02.579Z,99307.77
2019-04-03T06:33:52.504Z,99299.91
2019-04-03T06:36:42.905Z,99279.02
2019-04-03T06:39:32.948Z,99262.16
2019-04-03T06:42:22.796Z,99245.59
2019-04-03T06:45:15.566Z,99247.47
2019-04-03T06:48:05.547Z,99262.93
2019-04-03T06:50:55.934Z,99270.78
2019-04-03T06:53:45.964Z,99253.95
2019-04-03T06:56:35.926Z,99271.05
2019-04-03T06:59:26.568Z,99295.98
2019-04-03T07:02:16.250Z,99295.72
2019-04-03T07:05:06.293Z,99287.27
2019-04-03T07:07:56.337Z,99272.27
2019-04-03T07:10:55.179Z,99280.59
2019-04-03T07:13:37.959Z,99284.72
2019-04-03T07:16:28.881Z,99274.83
2019-04-03T07:19:19.232Z,99268.13
2019-04-03T07:22:08.665Z,99260.16
2019-04-03T07:24:58.826Z,99258.12
2019-04-03T07:27:48.627Z,99250.00
2019-04-03T07:30:38.462Z,99249.25
2019-04-03T07:33:28.720Z,99244.39
2019-04-03T07:36:19.312Z,99245.75
2019-04-03T07:39:11.127Z,99251.73
2019-04-03T07:42:01.198Z,99258.23
2019-04-03T07:44:50.978Z,99257.96
2019-04-03T07:47:40.937Z,99253.52
2019-04-03T07:50:31.315Z,99245.75
2019-04-03T07:53:21.862Z,99252.14
2019-04-03T07:56:11.587Z,99251.40
2019-04-03T07:59:03.250Z,99248.53
2019-04-03T08:01:52.513Z,99253.00
2019-04-03T08:04:42.476Z,99252.87
2019-04-03T08:07:32.188Z,99245.07
2019-04-03T08:10:22.097Z,99236.28
2019-04-03T08:13:12.332Z,99235.45
2019-04-03T08:16:02.331Z,99232.89
2019-04-03T08:18:52.532Z,99230.34
2019-04-03T08:21:42.264Z,99225.61
2019-04-03T08:24:31.753Z,99224.48
2019-04-03T08:27:23.447Z,99232.80
2019-04-03T08:30:14.609Z,99230.69
2019-04-03T08:33:15.223Z,99237.95
2019-04-03T08:35:55.375Z,99240.56
2019-04-03T08:38:46.623Z,99237.56
2019-04-03T08:41:37.921Z,99230.23
2019-04-03T08:44:29.578Z,99227.83
2019-04-03T08:47:20.750Z,99228.84
2019-04-03T08:50:13.291Z,99233.96
2019-04-03T08:53:07.414Z,99231.97
2019-04-03T08:55:58.271Z,99225.91
2019-04-03T08:58:50.748Z,99229.59
2019-04-03T09:01:40.962Z,99231.84
2019-04-03T09:04:30.823Z,99234.06
2019-04-03T09:07:20.943Z,99225.09
2019-04-03T09:10:13.101Z,99229.59
2019-04-03T09:13:15.436Z,99224.73
2019-04-03T09:15:53.965Z,99222.56
2019-04-03T09:18:44.174Z,99225.95
2019-04-03T09:21:34.399Z,99224.42
2019-04-03T09:24:24.191Z,99211.25
2019-04-03T09:27:14.011Z,99207.33
2019-04-03T09:30:06.167Z,99203.30
2019-04-03T09:32:59.010Z,99205.11
2019-04-03T09:35:48.909Z,99208.13
2019-04-03T09:38:40.718Z,99205.86
2019-04-03T09:41:30.541Z,99210.05
2019-04-03T09:44:20.687Z,99204.27
2019-04-03T09:47:10.721Z,99201.27
2019-04-03T09:50:00.796Z,99201.69
2019-04-03T09:52:54.241Z,99200.16
2019-04-03T09:55:43.480Z,99205.17
2019-04-03T09:58:35.625Z,99203.06
2019-04-03T10:01:24.459Z,99205.50
2019-04-03T10:04:17.030Z,99204.53
2019-04-03T10:07:07.212Z,99201.97
2019-04-03T10:09:57.045Z,99193.88
2019-04-03T10:12:48.899Z,99187.75
2019-04-03T10:15:38.670Z,99189.35
2019-04-03T10:18:28.534Z,99176.98
2019-04-03T10:21:19.882Z,99168.44
2019-04-03T10:24:10.124Z,99174.80
2019-04-03T10:27:00.306Z,99167.14
2019-04-03T10:29:50.824Z,99163.56
2019-04-03T10:32:41.446Z,99156.20
2019-04-03T10:35:31.824Z,99156.76
2019-04-03T10:38:22.013Z,99155.41
2019-04-03T10:41:12.062Z,99155.08
2019-04-03T10:44:01.891Z,99162.78
2019-04-03T10:46:52.082Z,99156.45
2019-04-03T10:49:41.727Z,99165.08
2019-04-03T10:52:32.769Z,99167.95
2019-04-03T10:55:22.814Z,99168.31
2019-04-03T10:58:12.359Z,99171.86
2019-04-03T11:01:02.186Z,99167.36
2019-04-03T11:03:52.076Z,99162.27
2019-04-03T11:06:42.251Z,99162.25
2019-04-03T11:09:33.412Z,99160.62
2019-04-03T11:12:23.301Z,99157.61
2019-04-03T11:15:14.181Z,99148.49
2019-04-03T11:18:04.883Z,99149.19
2019-04-03T11:20:54.519Z,99141.50
2019-04-03T11:23:45.573Z,99144.13
2019-04-03T11:26:35.279Z,99134.45
2019-04-03T11:29:24.989Z,99133.54
2019-04-03T11:32:15.096Z,99125.27
2019-04-03T11:35:05.591Z,99123.30
2019-04-03T11:37:56.186Z,99123.52
2019-04-03T11:40:49.359Z,99127.08
2019-04-03T11:43:37.859Z,99126.55
2019-04-03T11:46:27.868Z,99121.45
2019-04-03T11:49:20.106Z,99120.94
2019-04-03T11:52:10.495Z,99114.50
2019-04-03T11:55:00.902Z,99091.80
2019-04-03T11:57:51.405Z,99095.56
2019-04-03T12:00:46.446Z,99090.02
2019-04-03T12:03:36.436Z,99087.01
2019-04-03T12:06:26.500Z,99076.23
2019-04-03T12:09:16.838Z,99072.42
2019-04-03T12:12:08.950Z,99064.36
2019-04-03T12:14:57.747Z,99059.08
2019-04-03T12:17:47.823Z,99046.92
2019-04-03T12:20:50.390Z,99041.98
2019-04-03T12:23:40.660Z,99041.02
2019-04-03T12:26:30.303Z,99040.54
2019-04-03T12:29:21.523Z,99036.64
2019-04-03T12:32:10.996Z,99032.91
2019-04-03T12:35:01.513Z,99026.19
2019-04-03T12:37:51.305Z,99026.22
2019-04-03T12:40:41.303Z,99023.97
2019-04-03T12:43:31.119Z,99026.59
2019-04-03T12:46:37.356Z,99019.22
2019-04-03T12:49:28.119Z,99012.59
2019-04-03T12:52:17.814Z,99021.92
2019-04-03T12:55:08.115Z,99018.80
2019-04-03T12:57:58.268Z,99013.45
2019-04-03T13:00:49.104Z,99011.94
2019-04-03T13:03:39.481Z,99013.91
2019-04-03T13:06:29.601Z,99014.30
2019-04-03T13:09:19.537Z,99009.94
2019-04-03T13:12:09.704Z,99009.12
2019-04-03T13:14:59.787Z,98999.54
2019-04-03T13:17:50.011Z,98997.98
2019-04-03T13:20:39.860Z,99000.31
2019-04-03T13:23:30.260Z,98992.86
2019-04-03T13:26:20.137Z,99000.73
2019-04-03T13:29:09.682Z,98997.15
2019-04-03T13:31:59.653Z,98991.53
2019-04-03T13:34:50.406Z,98998.09
2019-04-03T13:37:40.198Z,98984.73
2019-04-03T13:40:31.000Z,98978.73
2019-04-03T13:43:22.333Z,98968.91
2019-04-03T13:46:13.327Z,98973.28
2019-04-03T13:49:03.596Z,98968.87
2019-04-03T13:51:57.992Z,98964.27
2019-04-03T13:54:46.319Z,98976.22
2019-04-03T13:57:36.299Z,98973.48
2019-04-03T14:00:26.589Z,98966.44
2019-04-03T14:03:18.605Z,98955.70
2019-04-03T14:06:08.579Z,98965.10
2019-04-03T14:08:58.547Z,98954.13
2019-04-03T14:11:47.946Z,98955.61
2019-04-03T14:14:37.559Z,98946.71
2019-04-03T14:17:28.238Z,98948.62
2019-04-03T14:20:18.852Z,98948.92
2019-04-03T14:23:09.140Z,98941.80
2019-04-03T14:26:06.121Z,98935.28
2019-04-03T14:28:50.930Z,98942.64
2019-04-03T14:31:40.641Z,98948.56
2019-04-03T14:34:31.208Z,98933.63
2019-04-03T14:37:25.498Z,98938.75
2019-04-03T14:40:13.646Z,98937.98
2019-04-03T14:43:04.038Z,98929.17
2019-04-03T14:45:53.871Z,98928.09
2019-04-03T14:48:43.839Z,98920.67
2019-04-03T14:51:33.742Z,98923.93
2019-04-03T14:54:25.085Z,98930.06
2019-04-03T14:57:20.862Z,98922.39
2019-04-03T15:00:23.358Z,98916.88
2019-04-03T15:02:58.555Z,98916.30
2019-04-03T15:05:48.055Z,98919.30
2019-04-03T15:08:37.921Z,98914.03
2019-04-03T15:11:28.202Z,98908.06
2019-04-03T15:14:21.859Z,98904.20
2019-04-03T15:17:10.716Z,98896.64
2019-04-03T15:20:00.692Z,98898.05
2019-04-03T15:22:50.670Z,98898.28
2019-04-03T15:25:42.620Z,98896.35
2019-04-03T15:28:32.414Z,98894.52
2019-04-03T15:31:24.388Z,98893.37
2019-04-03T15:34:15.004Z,98884.52
2019-04-03T15:37:06.139Z,98881.53
2019-04-03T15:39:58.396Z,98879.59
2019-04-03T15:42:49.231Z,98873.52
2019-04-03T15:45:38.918Z,98871.00
2019-04-03T15:48:29.043Z,98869.50
2019-04-03T15:51:18.564Z,98866.41
2019-04-03T15:54:08.362Z,98863.06
2019-04-03T15:56:58.860Z,98859.17
2019-04-03T15:59:51.692Z,98857.57
2019-04-03T16:02:44.530Z,98846.55
2019-04-03T16:05:35.705Z,98840.95
2019-04-03T16:08:24.889Z,98838.36
2019-04-03T16:11:14.968Z,98835.02
2019-04-03T16:14:06.425Z,98835.59
2019-04-03T16:16:56.161Z,98835.70
2019-04-03T16:19:46.367Z,98824.77
2019-04-03T16:22:36.905Z,98815.59
2019-04-03T16:25:26.630Z,98811.42
2019-04-03T16:28:16.573Z,98807.27
2019-04-03T16:31:06.649Z,98806.09
2019-04-03T16:33:57.153Z,98816.58
2019-04-03T16:36:48.735Z,98810.11
2019-04-03T16:39:39.181Z,98812.49
2019-04-03T16:42:29.273Z,98808.45
2019-04-03T16:45:19.493Z,98815.52
2019-04-03T16:48:09.487Z,98808.38
2019-04-03T16:51:00.694Z,98813.05
2019-04-03T16:53:52.051Z,98811.77
2019-04-03T16:56:42.094Z,98806.81
2019-04-03T16:59:35.438Z,98804.81
2019-04-03T17:02:24.766Z,98803.83
2019-04-03T17:05:15.549Z,98791.66
2019-04-03T17:08:06.425Z,98796.66
2019-04-03T17:10:56.564Z,98789.52
2019-04-03T17:13:46.985Z,98785.48
2019-04-03T17:16:39.125Z,98779.97
2019-04-03T17:19:29.576Z,98777.59
2019-04-03T17:22:19.942Z,98775.46
2019-04-03T17:25:10.913Z,98771.96
2019-04-03T17:28:05.996Z,98767.14
2019-04-03T17:30:52.454Z,98765.66
2019-04-03T17:33:42.569Z,98766.91
2019-04-03T17:36:32.419Z,98767.75
2019-04-03T17:39:22.130Z,98763.00
2019-04-03T17:42:12.461Z,98756.99
2019-04-03T17:45:02.470Z,98753.95
2019-04-03T17:47:54.009Z,98762.50
2019-04-03T17:50:45.371Z,98760.03
2019-04-03T17:53:36.662Z,98753.44
2019-04-03T17:56:28.090Z,98748.98
2019-04-03T17:59:19.038Z,98741.48
2019-04-03T18:02:09.027Z,98743.43
2019-04-03T18:04:59.126Z,98753.03
2019-04-03T18:07:49.184Z,98754.08
2019-04-03T18:10:38.993Z,98756.81
2019-04-03T18:13:28.510Z,98756.23
2019-04-03T18:16:17.701Z,98748.51
2019-04-03T18:19:07.662Z,98747.88
2019-04-03T18:21:57.642Z,98745.92
2019-04-03T18:24:47.735Z,98742.38
2019-04-03T18:27:38.179Z,98742.84
2019-04-03T18:30:28.572Z,98737.56
2019-04-03T18:33:19.180Z,98734.48
2019-04-03T18:36:09.272Z,98742.61
2019-04-03T18:38:58.911Z,98728.59
2019-04-03T18:41:48.768Z,98730.69
2019-04-03T18:44:38.886Z,98734.67
2019-04-03T18:47:40.426Z,98734.32
2019-04-03T18:50:20.364Z,98726.66
2019-04-03T18:53:10.378Z,98736.05
2019-04-03T18:56:00.417Z,98732.34
2019-04-03T18:58:49.710Z,98727.16
2019-04-03T19:01:39.313Z,98722.86
2019-04-03T19:04:29.084Z,98725.00
2019-04-03T19:07:20.197Z,98720.78
2019-04-03T19:10:11.171Z,98718.98
2019-04-03T19:13:01.463Z,98717.75
2019-04-03T19:15:51.411Z,98710.30
2019-04-03T19:18:41.282Z,98708.83
2019-04-03T19:21:31.393Z,98710.94
2019-04-03T19:24:20.847Z,98707.86
2019-04-03T19:27:10.626Z,98706.13
2019-04-03T19:30:00.468Z,98702.54
2019-04-03T19:32:50.703Z,98703.03
2019-04-03T19:35:41.104Z,98697.55
2019-04-03T19:38:30.822Z,98700.98
2019-04-03T19:41:20.673Z,98701.14
2019-04-03T19:44:10.715Z,98696.06
2019-04-03T19:47:00.618Z,98694.78
2019-04-03T19:49:50.583Z,98693.24
2019-04-03T19:52:42.154Z,98693.53
2019-04-03T19:55:32.121Z,98693.53
2019-04-03T19:58:22.386Z,98690.86
2019-04-03T20:01:11.884Z,98699.03
2019-04-03T20:04:01.498Z,98701.95
2019-04-03T20:06:52.959Z,98701.20
2019-04-03T20:09:43.103Z,98701.80
2019-04-03T20:12:33.164Z,98698.34
2019-04-03T20:15:23.398Z,98693.23
2019-04-03T20:18:13.308Z,98689.20
2019-04-03T20:21:03.890Z,98693.91
2019-04-03T20:23:54.083Z,98694.52
2019-04-03T20:26:46.384Z,98695.06
2019-04-03T20:29:35.671Z,98693.47
2019-04-03T20:32:25.730Z,98692.70
2019-04-03T20:35:18.035Z,98683.77
2019-04-03T20:38:06.644Z,98679.55
2019-04-03T20:40:56.531Z,98670.61
2019-04-03T20:43:47.316Z,98670.98
2019-04-03T20:46:37.607Z,98671.84
2019-04-03T20:49:27.330Z,98662.63
2019-04-03T20:52:17.319Z,98666.66
2019-04-03T20:55:08.216Z,98665.30
2019-04-03T20:57:58.036Z,98656.91
2019-04-03T21:00:51.511Z,98655.81
2019-04-03T21:03:39.410Z,98656.41
2019-04-03T21:06:29.272Z,98652.83
2019-04-03T21:09:19.346Z,98650.91
2019-04-03T21:12:09.129Z,98655.23
2019-04-03T21:15:08.150Z,98648.80
2019-04-03T21:17:50.604Z,98652.37
2019-04-03T21:20:40.439Z,98649.66
2019-04-03T21:23:33.322Z,98646.38
2019-04-03T21:26:22.534Z,98652.75
2019-04-03T21:29:12.640Z,98642.95
2019-04-03T21:32:02.782Z,98645.77
2019-04-03T21:34:52.895Z,98641.81
2019-04-03T21:37:42.675Z,98641.55
2019-04-03T21:40:32.715Z,98644.64
2019-04-03T21:43:22.170Z,98643.87
2019-04-03T21:46:11.974Z,98642.88
2019-04-03T21:49:01.752Z,98638.85
2019-04-03T21:51:52.357Z,98634.31
2019-04-03T21:54:42.529Z,98637.99
2019-04-03T21:57:31.976Z,98631.19
2019-04-03T22:01:09.057Z,98632.64
2019-04-03T22:03:59.273Z,98630.19
2019-04-03T22:06:49.123Z,98636.77
2019-04-03T22:09:39.102Z,98641.20
2019-04-03T22:12:28.988Z,98633.36
2019-04-03T22:15:19.062Z,98630.41
2019-04-03T22:18:09.566Z,98630.73
2019-04-03T22:20:59.918Z,98630.77
2019-04-03T22:23:51.699Z,98632.72
2019-04-03T22:26:41.648Z,98629.00
2019-04-03T22:29:31.247Z,98630.66
2019-04-03T22:32:21.020Z,98627.98
2019-04-03T22:35:10.976Z,98627.22
2019-04-03T22:38:01.003Z,98615.33
2019-04-03T22:40:51.021Z,98620.77
2019-04-03T22:43:41.159Z,98625.71
2019-04-03T22:46:30.837Z,98618.80
2019-04-03T22:49:20.527Z,98622.88
2019-04-03T22:52:10.632Z,98627.00
2019-04-03T22:55:00.530Z,98633.53
2019-04-03T22:57:50.611Z,98647.95
2019-04-03T23:00:40.934Z,98675.26
2019-04-03T23:03:31.995Z,98677.31
2019-04-03T23:06:22.796Z,98643.09
2019-04-03T23:09:13.066Z,98645.81
2019-04-03T23:12:03.025Z,98675.48
2019-04-03T23:14:53.175Z,98693.77
2019-04-03T23:17:42.895Z,98684.30
2019-04-03T23:20:34.650Z,98671.55
2019-04-03T23:23:27.048Z,98692.59
2019-04-03T23:26:15.151Z,98679.58
2019-04-03T23:29:05.259Z,98677.78
2019-04-03T23:31:55.690Z,98683.63
2019-04-03T23:34:45.260Z,98685.05
2019-04-03T23:37:35.442Z,98675.61
2019-04-03T23:40:25.283Z,98676.27
2019-04-03T23:43:15.093Z,98670.39
2019-04-03T23:46:05.213Z,98676.19
2019-04-03T23:48:54.955Z,98671.66
2019-04-03T23:51:45.029Z,98673.14
2019-04-03T23:54:35.007Z,98668.07
2019-04-03T23:57:25.266Z,98669.27
